Thunder radar more information blitzortung!


Radar de pluja more information rain snow radar


Visita la nostra xarxa de llocs de meteo:

Template documentation
and downloads

And another site



No particular awareness of the weather is required.    There are no Weather-warnings

Pagina Historial Weather Underground text

Diari Resum Juny 17, 2016 Unitats:  Mètric    Imperial   Tant
« Previous Dia
SegĂźent Dia »
Diari Setmana Mensual Anual Personalitzada
  Maxima: Minima: Media:
Temperatura: -17.8 °C -9.9 °C -6.5 °C
Punt de rosada: -17.8 °C -14.8 °C -12.4 °C
Humitat: Humidity % 32 % 51 %
Wind Speed: 0 km/h 0 km/h 7.2 km/h
RĂ fegues de vent: 0 km/h - -
Vent:- - SSW
Pression baro: 0 hPa 34256.2 hPa -
Precipitacions: 0 mm    
Historical Graphs
 
 
Dades de taula per Juny 17, 2016
Temps Temperatura Punt de rosada Pression baro Vent Wind Speed RĂ fegues de vent Humitat Rainfall Rate (Hourly)
-17.8 °C -17.8 °C 0 hPa Calm     Humidity % 0 mm
00:05 -9.6 °C -14.6 °C 34256.2 hPa ESE 7.7 km/h 15.6 km/h 55 % 0 mm
00:15 -9.6 °C -14.6 °C 34256.2 hPa ESE 7.7 km/h 15.6 km/h 55 % 0 mm
00:25 -9.7 °C -14.7 °C 34256.2 hPa ESE 7.7 km/h 15.6 km/h 55 % 0 mm
00:35 -9.8 °C -14.6 °C 34256.2 hPa ESE 7.7 km/h 15.6 km/h 56 % 0 mm
00:45 -9.9 °C -14.8 °C 34256.2 hPa ESE 7.7 km/h 15.6 km/h 56 % 0 mm
00:55 -9.9 °C -14.6 °C 34256.2 hPa ESE 7.7 km/h 15.6 km/h 57 % 0 mm
01:05 -9.9 °C -14.6 °C 34256.2 hPa ESE 7.7 km/h 15.6 km/h 57 % 0 mm
01:15 -9.9 °C -14.6 °C 34256.2 hPa ESE 7.7 km/h 15.6 km/h 57 % 0 mm
01:25 -9.9 °C -14.6 °C 34256.2 hPa ESE 7.7 km/h 15.6 km/h 57 % 0 mm
01:35 -9.9 °C -14.6 °C 34256.2 hPa ESE 7.7 km/h 15.6 km/h 57 % 0 mm
01:45 -9.9 °C -14.5 °C 34256.2 hPa ESE 7.7 km/h 15.6 km/h 58 % 0 mm
01:55 -9.8 °C -14.3 °C 34256.2 hPa ESE 7.7 km/h 15.6 km/h 58 % 0 mm
02:05 -9.7 °C -14.2 °C 34293.4 hPa ESE 7.7 km/h 15.6 km/h 58 % 0 mm
02:15 -9.5 °C -14.1 °C 34293.4 hPa ESE 7.7 km/h 15.6 km/h 58 % 0 mm
02:25 -9.3 °C -14.1 °C 34293.4 hPa ESE 7.7 km/h 15.6 km/h 57 % 0 mm
02:35 -9.2 °C -13.9 °C 34293.4 hPa ESE 7.7 km/h 15.6 km/h 57 % 0 mm
02:45 -9.1 °C -13.8 °C 34293.4 hPa ESE 7.7 km/h 15.6 km/h 57 % 0 mm
02:55 -8.9 °C -13.6 °C 34293.4 hPa ESE 7.7 km/h 15.6 km/h 57 % 0 mm
03:05 -8.6 °C -13.4 °C 34327.3 hPa ESE 7.7 km/h 15.6 km/h 56 % 0 mm
03:15 -8.7 °C -13.6 °C 34327.3 hPa ESE 7.7 km/h 15.6 km/h 56 % 0 mm
03:25 -8.7 °C -13.6 °C 34327.3 hPa ESE 7.7 km/h 15.6 km/h 56 % 0 mm
03:35 -8.7 °C -13.6 °C 34293.4 hPa ESE 7.7 km/h 15.6 km/h 56 % 0 mm
03:45 -8.2 °C -13.4 °C 34327.3 hPa ESE 7.7 km/h 15.6 km/h 54 % 0 mm
03:55 -7.8 °C -13.1 °C 34327.3 hPa ESE 7.7 km/h 15.6 km/h 54 % 0 mm
04:05 -7.6 °C -12.9 °C 34327.3 hPa ESE 7.7 km/h 15.6 km/h 53 % 0 mm
04:15 -7.4 °C -13 °C 34361.1 hPa ESE 7.7 km/h 15.6 km/h 52 % 0 mm
04:25 -7.1 °C -12.9 °C 34361.1 hPa ESE 7.7 km/h 15.6 km/h 51 % 0 mm
04:35 -7.1 °C -12.9 °C 34327.3 hPa ESE 7.7 km/h 15.6 km/h 51 % 0 mm
04:45 -7.2 °C -13.1 °C 34327.3 hPa ESE 7.7 km/h 15.6 km/h 50 % 0 mm
05:05 -6.4 °C -12.4 °C 34327.3 hPa ESE 7.7 km/h 15.6 km/h 50 % 0 mm
05:15 -6.3 °C -12.7 °C 34327.3 hPa ESE 7.7 km/h 15.6 km/h 48 % 0 mm
05:25 -6 °C -12.4 °C 34327.3 hPa ESE 7.7 km/h 15.6 km/h 48 % 0 mm
05:35 -6.1 °C -12.8 °C 34361.1 hPa ESE 7.7 km/h 15.6 km/h 46 % 0 mm
05:45 -6.1 °C -13.1 °C 34327.3 hPa ESE 7.7 km/h 15.6 km/h 44 % 0 mm
10:50 -6 °C -13.1 °C 34327.3 hPa WSW 15 km/h 15 km/h 44 % 0 mm
10:55 -5.7 °C -12.8 °C 34327.3 hPa WSW 6.8 km/h 7.6 km/h 44 % 0 mm
11:00 -5.8 °C -13.1 °C 34361.1 hPa WSW 6.8 km/h 7.6 km/h 43 % 0 mm
11:05 -5.7 °C -13 °C 34361.1 hPa WSW 6.8 km/h 7.6 km/h 43 % 0 mm
11:15 -5.2 °C -12.6 °C 34361.1 hPa WSW 6.8 km/h 7.6 km/h 43 % 0 mm
11:20 -5.3 °C -12.8 °C 34361.1 hPa WSW 6.8 km/h 7.6 km/h 42 % 0 mm
11:25 -5.4 °C -13.2 °C 34361.1 hPa WSW 6.8 km/h 7.6 km/h 41 % 0 mm
11:30 -5.4 °C -13.2 °C 34361.1 hPa WSW 6.8 km/h 7.6 km/h 41 % 0 mm
11:35 -5.3 °C -13.1 °C 34361.1 hPa WSW 6.8 km/h 7.6 km/h 41 % 0 mm
11:40 -5 °C -12.9 °C 34361.1 hPa WSW 6.8 km/h 7.6 km/h 40 % 0 mm
11:45 -4.5 °C -12.5 °C 34361.1 hPa WSW 6.8 km/h 7.6 km/h 40 % 0 mm
11:50 -4.4 °C -12.4 °C 34361.1 hPa WSW 6.8 km/h 7.6 km/h 40 % 0 mm
11:55 -4.6 °C -13 °C 34361.1 hPa WSW 6.8 km/h 7.6 km/h 38 % 0 mm
12:00 -4.6 °C -13 °C 34361.1 hPa WSW 6.8 km/h 7.6 km/h 38 % 0 mm
12:05 -4.7 °C -13.4 °C 34361.1 hPa WSW 6.8 km/h 7.6 km/h 37 % 0 mm
12:10 -4.8 °C -13.4 °C 34361.1 hPa WSW 6.8 km/h 7.6 km/h 37 % 0 mm
12:15 -4.7 °C -13.4 °C 34361.1 hPa WSW 6.8 km/h 7.6 km/h 37 % 0 mm
12:20 -4.7 °C -13.3 °C 34361.1 hPa WSW 6.8 km/h 7.6 km/h 37 % 0 mm
12:25 -4.3 °C -12.9 °C 34361.1 hPa WSW 6.8 km/h 7.6 km/h 37 % 0 mm
12:30 -4.1 °C -13 °C 34361.1 hPa WSW 6.8 km/h 7.6 km/h 36 % 0 mm
12:35 -3.8 °C -13 °C 34361.1 hPa WSW 6.8 km/h 7.6 km/h 35 % 0 mm
12:40 -3.9 °C -13.3 °C 34361.1 hPa WSW 6.8 km/h 7.6 km/h 34 % 0 mm
12:45 -3.9 °C -13.4 °C 34361.1 hPa WSW 6.8 km/h 7.6 km/h 34 % 0 mm
12:50 -4.3 °C -13.9 °C 34361.1 hPa WSW 6.8 km/h 7.6 km/h 33 % 0 mm
12:55 -3.9 °C -13.4 °C 34361.1 hPa WSW 6.8 km/h 7.6 km/h 34 % 0 mm
13:00 -3.6 °C -13.5 °C 34361.1 hPa WSW 6.8 km/h 7.6 km/h 32 % 0 mm
13:05 -3.3 °C -13.3 °C 34361.1 hPa WSW 6.8 km/h 7.6 km/h 32 % 0 mm
13:10 -3.7 °C -12.7 °C 34361.1 hPa WSW 6.8 km/h 7.6 km/h 36 % 0 mm
13:15 -4.3 °C -12.6 °C 34361.1 hPa WSW 6.8 km/h 7.6 km/h 39 % 0 mm
13:25 -3.9 °C -13.1 °C 34361.1 hPa WSW 6.8 km/h 7.6 km/h 35 % 0 mm
13:30 -4.2 °C -12.4 °C 34361.1 hPa WSW 6.8 km/h 7.6 km/h 39 % 0 mm
13:35 -4.2 °C -12 °C 34361.1 hPa WSW 6.8 km/h 7.6 km/h 41 % 0 mm
13:40 -4.5 °C -12.1 °C 34361.1 hPa WSW 6.8 km/h 7.6 km/h 42 % 0 mm
13:45 -4.8 °C -12 °C 34361.1 hPa WSW 6.8 km/h 7.6 km/h 44 % 0 mm
13:50 -5.4 °C -12.2 °C 34361.1 hPa WSW 6.8 km/h 7.6 km/h 46 % 0 mm
13:55 -5.7 °C -12.1 °C 34361.1 hPa WSW 6.8 km/h 7.6 km/h 48 % 0 mm
14:00 -5.8 °C -12.1 °C 34361.1 hPa WSW 6.8 km/h 7.6 km/h 49 % 0 mm
14:05 -5.9 °C -12.1 °C 34361.1 hPa WSW 6.8 km/h 7.6 km/h 49 % 0 mm
14:10 -6.2 °C -11.9 °C 34361.1 hPa WSW 6.8 km/h 7.6 km/h 52 % 0 mm
14:15 -6.3 °C -11.9 °C 34361.1 hPa WSW 6.8 km/h 7.6 km/h 52 % 0 mm
14:21 -6.3 °C -11.8 °C 34361.1 hPa WSW 6.8 km/h 7.6 km/h 53 % 0 mm
14:26 -6.3 °C -11.6 °C 34361.1 hPa WSW 6.8 km/h 7.6 km/h 54 % 0 mm
14:36 -6.1 °C -11.3 °C 34361.1 hPa WSW 6.8 km/h 7.6 km/h 55 % 0 mm
14:41 -6.3 °C -11.2 °C 34361.1 hPa WSW 6.8 km/h 7.6 km/h 57 % 0 mm
14:46 -6.4 °C -11.2 °C 34361.1 hPa WSW 6.8 km/h 7.6 km/h 58 % 0 mm
14:51 -6.4 °C -11.1 °C 34361.1 hPa WSW 6.8 km/h 7.6 km/h 59 % 0 mm
14:56 -6.4 °C -11.1 °C 34361.1 hPa WSW 6.8 km/h 7.6 km/h 59 % 0 mm
15:01 -6.4 °C -10.9 °C 34361.1 hPa WSW 6.8 km/h 7.6 km/h 60 % 0 mm
15:06 -6.4 °C -11 °C 34361.1 hPa WSW 6.8 km/h 7.6 km/h 59 % 0 mm
15:11 -6.3 °C -10.7 °C 34361.1 hPa WSW 6.8 km/h 7.6 km/h 61 % 0 mm
15:16 -6.2 °C -10.7 °C 34327.3 hPa WSW 6.8 km/h 7.6 km/h 60 % 0 mm
15:21 -6.3 °C -10.7 °C 34327.3 hPa WSW 6.8 km/h 7.6 km/h 61 % 0 mm
15:26 -6.5 °C -10.8 °C 34327.3 hPa WSW 6.8 km/h 7.6 km/h 61 % 0 mm
15:31 -6.4 °C -10.8 °C 34327.3 hPa WSW 6.8 km/h 7.6 km/h 61 % 0 mm
15:41 -6.6 °C -10.7 °C 34327.3 hPa WSW 6.8 km/h 7.6 km/h 62 % 0 mm
15:46 -6.3 °C -10.7 °C 34327.3 hPa WSW 6.8 km/h 7.6 km/h 61 % 0 mm
15:51 -6.4 °C -10.6 °C 34327.3 hPa WSW 6.8 km/h 7.6 km/h 62 % 0 mm
15:56 -6.2 °C -10.6 °C 34327.3 hPa WSW 6.8 km/h 7.6 km/h 61 % 0 mm
16:01 -6.2 °C -10.7 °C 34327.3 hPa WSW 6.8 km/h 7.6 km/h 60 % 0 mm
16:06 -6.3 °C -10.7 °C 34327.3 hPa WSW 6.8 km/h 7.6 km/h 60 % 0 mm
16:11 -6.2 °C -10.7 °C 34327.3 hPa WSW 6.8 km/h 7.6 km/h 60 % 0 mm
16:16 -6.1 °C -10.6 °C 34327.3 hPa WSW 6.8 km/h 7.6 km/h 60 % 0 mm
16:21 -6.1 °C -10.5 °C 34327.3 hPa WSW 6.8 km/h 7.6 km/h 60 % 0 mm
16:26 -6.2 °C -10.7 °C 34327.3 hPa WSW 6.8 km/h 7.6 km/h 60 % 0 mm
16:31 -6.2 °C -10.7 °C 34327.3 hPa WSW 6.8 km/h 7.6 km/h 60 % 0 mm
16:36 -6.1 °C -10.6 °C 34327.3 hPa WSW 6.8 km/h 7.6 km/h 60 % 0 mm
16:41 -5.9 °C -10.6 °C 34327.3 hPa WSW 6.8 km/h 7.6 km/h 59 % 0 mm
16:46 -5.7 °C -10.4 °C 34327.3 hPa WSW 6.8 km/h 7.6 km/h 59 % 0 mm
16:51 -5.9 °C -10.7 °C 34327.3 hPa WSW 6.8 km/h 7.6 km/h 58 % 0 mm
16:56 -5.9 °C -10.7 °C 34327.3 hPa WSW 6.8 km/h 7.6 km/h 58 % 0 mm
17:01 -5.8 °C -10.4 °C 34327.3 hPa WSW 6.8 km/h 7.6 km/h 59 % 0 mm
17:06 -5.4 °C -10.4 °C 34327.3 hPa WSW 6.8 km/h 7.6 km/h 57 % 0 mm
17:11 -5.2 °C -10.5 °C 34327.3 hPa WSW 6.8 km/h 7.6 km/h 55 % 0 mm
17:16 -5.1 °C -10.4 °C 34327.3 hPa WSW 6.8 km/h 7.6 km/h 55 % 0 mm
17:21 -5.1 °C -10.4 °C 34327.3 hPa WSW 6.8 km/h 7.6 km/h 55 % 0 mm
17:26 -5.2 °C -10.4 °C 34327.3 hPa WSW 6.8 km/h 7.6 km/h 55 % 0 mm
17:31 -5.2 °C -10.7 °C 34327.3 hPa WSW 6.8 km/h 7.6 km/h 54 % 0 mm
17:36 -5.4 °C -10.7 °C 34327.3 hPa WSW 6.8 km/h 7.6 km/h 55 % 0 mm
17:41 -5.5 °C -10.6 °C 34327.3 hPa WSW 6.8 km/h 7.6 km/h 56 % 0 mm
17:46 -5.2 °C -10.3 °C 34327.3 hPa WSW 6.8 km/h 7.6 km/h 56 % 0 mm
17:51 -5.2 °C -10.3 °C 34327.3 hPa WSW 6.8 km/h 7.6 km/h 56 % 0 mm
17:56 -5.4 °C -10.4 °C 34327.3 hPa WSW 6.8 km/h 7.6 km/h 57 % 0 mm
18:01 -5.6 °C -10.5 °C 34327.3 hPa WSW 6.8 km/h 7.6 km/h 57 % 0 mm
18:06 -5.5 °C -10.4 °C 34327.3 hPa WSW 6.8 km/h 7.6 km/h 57 % 0 mm
18:11 -5.3 °C -10.3 °C 34327.3 hPa WSW 6.8 km/h 7.6 km/h 57 % 0 mm
18:16 -4.9 °C -10.9 °C 34327.3 hPa WSW 6.8 km/h 7.6 km/h 51 % 0 mm
18:21 -4.6 °C -10.7 °C 34327.3 hPa WSW 6.8 km/h 7.6 km/h 50 % 0 mm
18:26 -4.3 °C -10.8 °C 34327.3 hPa WSW 6.8 km/h 7.6 km/h 48 % 0 mm
18:31 -4.2 °C -11.7 °C 34327.3 hPa WSW 6.8 km/h 7.6 km/h 43 % 0 mm
18:36 -4.2 °C -11.8 °C 34327.3 hPa WSW 6.8 km/h 7.6 km/h 42 % 0 mm
18:41 -4.4 °C -12.2 °C 34327.3 hPa WSW 6.8 km/h 7.6 km/h 41 % 0 mm
18:46 -4.4 °C -12.2 °C 34327.3 hPa WSW 6.8 km/h 7.6 km/h 41 % 0 mm
18:51 -4.6 °C -12.3 °C 34327.3 hPa WSW 6.8 km/h 7.6 km/h 41 % 0 mm
18:56 -4.6 °C -12.3 °C 34327.3 hPa WSW 6.8 km/h 7.6 km/h 41 % 0 mm
19:01 -4.6 °C -12.3 °C 34327.3 hPa WSW 6.8 km/h 7.6 km/h 41 % 0 mm
19:06 -4.6 °C -12.3 °C 34327.3 hPa WSW 6.8 km/h 7.6 km/h 41 % 0 mm
19:11 -4.7 °C -12.4 °C 34327.3 hPa SSW 20.3 km/h 20.3 km/h 41 % 0 mm
19:15 -7.5 °C -12.6 °C 34462.7 hPa SW 7.7 km/h 10.3 km/h 55 % 0 mm
19:16 -4.8 °C -12.6 °C 34327.3 hPa SW 25.1 km/h 25.1 km/h 41 % 0 mm
19:21 -4.7 °C -12.5 °C 34327.3 hPa SSW 6 km/h 7.6 km/h 41 % 0 mm
19:25 -7.5 °C -12.3 °C 34462.7 hPa SW 7.7 km/h 10.3 km/h 57 % 0 mm
19:26 -4.8 °C -12.6 °C 34327.3 hPa SSW 15 km/h 15 km/h 41 % 0 mm
19:31 -4.8 °C -12.6 °C 34327.3 hPa WNW 15.3 km/h 15.3 km/h 41 % 0 mm
19:35 -7.5 °C -12.1 °C 34462.7 hPa SW 7.7 km/h 10.3 km/h 59 % 0 mm
19:36 -4.9 °C -12.7 °C 34327.3 hPa SSW 6.3 km/h 18.3 km/h 41 % 0 mm
19:41 -5.1 °C -12.7 °C 34327.3 hPa SW 11.9 km/h 17.4 km/h 42 % 0 mm
19:45 -7.5 °C -11.9 °C 34462.7 hPa SW 7.7 km/h 10.3 km/h 60 % 0 mm
19:46 -5.2 °C -12.7 °C 34327.3 hPa SW 23.8 km/h 23.8 km/h 42 % 0 mm
19:51 -5.2 °C -12.7 °C 34327.3 hPa SW 11.9 km/h 11.9 km/h 42 % 0 mm
19:55 -7.5 °C -11.6 °C 34462.7 hPa SW 7.7 km/h 10.3 km/h 62 % 0 mm
19:56 -5.2 °C -12.7 °C 34327.3 hPa SW 16.6 km/h 16.6 km/h 42 % 0 mm
20:01 -5.3 °C -12.8 °C 34327.3 hPa WSW 16.1 km/h 16.1 km/h 42 % 0 mm
20:05 -7.7 °C -11.3 °C 34462.7 hPa SW 7.7 km/h 10.3 km/h 66 % 0 mm
20:06 -5.3 °C -12.8 °C 34327.3 hPa SSW 6 km/h 16.6 km/h 42 % 0 mm
20:11 -5.4 °C -12.9 °C 34327.3 hPa SSW 9 km/h 9 km/h 42 % 0 mm
20:15 -7.8 °C -11.3 °C 34462.7 hPa SW 7.7 km/h 10.3 km/h 67 % 0 mm
20:16 -5.4 °C -12.9 °C 34327.3 hPa SSW 9 km/h 9 km/h 42 % 0 mm
20:21 -5.4 °C -12.8 °C 34327.3 hPa SSW 9 km/h 9 km/h 43 % 0 mm
20:25 -7.9 °C -11.3 °C 34462.7 hPa SW 7.7 km/h 10.3 km/h 67 % 0 mm
20:26 -5.7 °C -12.9 °C 34327.3 hPa SSW 9 km/h 9 km/h 43 % 0 mm
20:31 -5.8 °C -12.9 °C 34293.4 hPa SSW 9 km/h 9 km/h 44 % 0 mm
20:35 -7.9 °C -11.4 °C 34462.7 hPa Calm     67 % 0 mm
20:36 -5.9 °C -13 °C 34293.4 hPa SSW 9 km/h 9 km/h 44 % 0 mm
20:41 -5.9 °C -12.8 °C 34293.4 hPa SSW 9 km/h 9 km/h 45 % 0 mm
20:45 -8 °C -11.4 °C 34462.7 hPa Calm     67 % 0 mm
20:46 -5.9 °C -12.8 °C 34327.3 hPa SSW 9 km/h 9 km/h 45 % 0 mm
20:51 -6 °C -12.9 °C 34327.3 hPa SSW 9 km/h 9 km/h 45 % 0 mm
20:55 -8 °C -11.6 °C 34462.7 hPa Calm     66 % 0 mm
20:56 -6.1 °C -12.9 °C 34327.3 hPa SSW 9 km/h 9 km/h 45 % 0 mm
21:01 -6.1 °C -13 °C 34327.3 hPa SSW 9 km/h 9 km/h 45 % 0 mm
21:05 -8 °C -11.6 °C 34462.7 hPa Calm     66 % 0 mm
21:06 -6.2 °C -12.9 °C 34327.3 hPa SSW 9 km/h 9 km/h 46 % 0 mm
21:11 -6.3 °C -12.9 °C 34327.3 hPa SSW 9 km/h 9 km/h 46 % 0 mm
21:15 -8.1 °C -11.6 °C 34462.7 hPa Calm     67 % 0 mm
21:16 -6.4 °C -12.9 °C 34327.3 hPa SSW 9 km/h 9 km/h 47 % 0 mm
21:21 -6.4 °C -13.1 °C 34327.3 hPa SSW 9 km/h 9 km/h 46 % 0 mm
21:25 -8.1 °C -11.6 °C 34462.7 hPa WSW 2.6 km/h 2.6 km/h 67 % 0 mm
21:26 -6.4 °C -13.1 °C 34327.3 hPa SSW 9 km/h 9 km/h 46 % 0 mm
21:31 -6.5 °C -13.2 °C 34327.3 hPa SSW 9 km/h 9 km/h 46 % 0 mm
21:35 -8.1 °C -11.7 °C 34462.7 hPa Calm     66 % 0 mm
21:36 -6.6 °C -13.2 °C 34327.3 hPa SSW 9 km/h 9 km/h 46 % 0 mm
21:41 -6.6 °C -13.1 °C 34327.3 hPa SSW 9 km/h 9 km/h 47 % 0 mm
21:45 -8.1 °C -11.8 °C 34462.7 hPa Calm     65 % 0 mm
21:46 -6.7 °C -13.2 °C 34361.1 hPa SSW 9 km/h 9 km/h 47 % 0 mm
21:51 -6.7 °C -12.9 °C 34361.1 hPa SSW 9 km/h 9 km/h 48 % 0 mm
21:55 -8 °C -12 °C 34462.7 hPa Calm     63 % 0 mm
21:56 -6.7 °C -13 °C 34361.1 hPa SSW 9 km/h 9 km/h 48 % 0 mm
22:01 -6.8 °C -12.9 °C 34361.1 hPa SSW 9 km/h 9 km/h 49 % 0 mm
22:05 -7.9 °C -12.1 °C 34496.6 hPa Calm     62 % 0 mm
22:06 -6.8 °C -12.9 °C 34361.1 hPa SSW 9 km/h 9 km/h 49 % 0 mm
22:11 -6.9 °C -13 °C 34361.1 hPa SSW 9 km/h 9 km/h 49 % 0 mm
22:16 -6.9 °C -13 °C 34395 hPa SSW 9 km/h 9 km/h 49 % 0 mm
22:21 -6.9 °C -13.1 °C 34395 hPa SSW 9 km/h 9 km/h 49 % 0 mm
22:25 -8 °C -12.2 °C 34462.7 hPa Calm     61 % 0 mm
22:26 -7 °C -13.1 °C 34395 hPa SSW 9 km/h 9 km/h 49 % 0 mm
22:31 -7.1 °C -13 °C 34395 hPa SSW 9 km/h 9 km/h 50 % 0 mm
22:35 -8 °C -12.4 °C 34462.7 hPa Calm     60 % 0 mm
22:36 -7.1 °C -13 °C 34395 hPa SSW 9 km/h 9 km/h 50 % 0 mm
22:41 -7.1 °C -13.1 °C 34395 hPa SSW 9 km/h 9 km/h 50 % 0 mm
22:45 -8 °C -12.4 °C 34462.7 hPa Calm     60 % 0 mm
22:46 -7.2 °C -13.1 °C 34395 hPa SSW 9 km/h 9 km/h 50 % 0 mm
22:51 -7.2 °C -13 °C 34395 hPa SSW 9 km/h 9 km/h 51 % 0 mm
22:55 -7.8 °C -12.5 °C 34462.7 hPa Calm     58 % 0 mm
22:56 -7.3 °C -12.9 °C 34395 hPa SSW 9 km/h 9 km/h 52 % 0 mm
23:01 -7.3 °C -12.9 °C 34395 hPa SSW 9 km/h 9 km/h 52 % 0 mm
23:06 -7.3 °C -12.9 °C 34395 hPa SSW 9 km/h 9 km/h 52 % 0 mm
23:11 -7.4 °C -13 °C 34395 hPa SSW 9 km/h 9 km/h 52 % 0 mm
23:15 -8 °C -12.8 °C 34462.7 hPa Calm     57 % 0 mm
23:16 -7.4 °C -12.9 °C 34395 hPa SSW 9 km/h 9 km/h 53 % 0 mm
23:21 -7.4 °C -12.9 °C 34395 hPa SSW 9 km/h 9 km/h 53 % 0 mm
23:25 -8 °C -12.8 °C 34462.7 hPa Calm     57 % 0 mm
23:26 -7.4 °C -12.8 °C 34395 hPa SSW 9 km/h 9 km/h 53 % 0 mm
23:31 -7.4 °C -12.8 °C 34395 hPa SSW 9 km/h 9 km/h 53 % 0 mm
23:35 -8.1 °C -12.8 °C 34462.7 hPa Calm     57 % 0 mm
23:36 -7.4 °C -12.9 °C 34395 hPa SSW 9 km/h 9 km/h 53 % 0 mm
23:41 -7.4 °C -12.9 °C 34395 hPa SSW 9 km/h 9 km/h 53 % 0 mm
23:45 -8.1 °C -12.8 °C 34462.7 hPa Calm     57 % 0 mm
23:46 -7.5 °C -12.8 °C 34395 hPa SSW 9 km/h 9 km/h 54 % 0 mm
23:51 -7.5 °C -12.8 °C 34395 hPa SSW 9 km/h 9 km/h 54 % 0 mm
23:55 -8.1 °C -12.7 °C 34462.7 hPa Calm     58 % 0 mm
23:56 -7.5 °C -12.8 °C 34395 hPa SSW 9 km/h 9 km/h 54 % 0 mm
Meteo Sesrovires
Elogis d' Weather Underground - 3.75 mb

Guio original per  Jim McMurry - jmcmurry@mwt.net Adaptat per a la plantilla per  Wim van der Kuil - Leuven-Template.eu

Trobareu la nostra informacio del temps tambe a:

Weather Underground

AWEKAS